Time;durP1;ratioP1;P1;durP2;ratioP2;P2;SDS_P1;SDS_P2;PMS_P1;PMS_P2;Temp;Humidity;BMP_temperature;BMP_pressure;BME280_temperature;BME280_humidity;BME280_pressure;Samples;Min_cycle;Max_cycle;Signal;HPM_P1;HPM_P2
2021/01/04 00:00:34;;;;;;;46.30;21.10;;;;;;;0.16;100.00;95532.53;1028735;28;20019;-71
2021/01/04 00:01:29;;;;;;;47.08;21.13;;;;;;;0.17;100.00;95525.50;1027853;28;20104;-72
2021/01/04 00:02:11;;;;;;;50.08;21.92;;;;;;;0.06;100.00;95522.94;1032908;28;20372;-73
2021/01/04 00:03:02;;;;;;;50.20;22.13;;;;;;;0.13;100.00;95532.75;1031622;28;20181;-73
2021/01/04 00:03:50;;;;;;;45.83;20.50;;;;;;;0.18;100.00;95524.56;1035773;28;20022;-73
2021/01/04 00:04:38;;;;;;;48.80;20.67;;;;;;;-0.06;100.00;95501.25;1036959;28;20018;-72
2021/01/04 00:05:20;;;;;;;48.05;21.27;;;;;;;0.11;100.00;95528.63;1028523;28;20494;-73
2021/01/04 00:06:02;;;;;;;45.80;22.20;;;;;;;0.15;100.00;95530.03;1031855;28;20014;-73
2021/01/04 00:06:47;;;;;;;47.72;22.80;;;;;;;0.02;100.00;95511.91;1032063;28;20033;-73
2021/01/04 00:07:28;;;;;;;49.15;21.73;;;;;;;0.08;100.00;95511.41;1035901;28;20033;-73
2021/01/04 00:08:05;;;;;;;46.20;21.05;;;;;;;0.02;100.00;95513.66;1035956;28;20080;-73
2021/01/04 00:08:46;;;;;;;45.22;21.27;;;;;;;0.12;100.00;95528.50;1035955;28;20010;-73
2021/01/04 00:09:36;;;;;;;46.75;22.42;;;;;;;0.06;100.00;95533.38;1035916;28;20112;-73
2021/01/04 00:10:20;;;;;;;44.55;20.52;;;;;;;0.07;100.00;95528.03;1031853;28;20022;-72
2021/01/04 00:11:07;;;;;;;44.03;20.17;;;;;;;0.08;100.00;95526.25;1039985;28;20044;-73
2021/01/04 00:11:46;;;;;;;43.00;18.80;;;;;;;0.07;100.00;95520.22;1035833;28;20017;-73
2021/01/04 00:12:27;;;;;;;40.88;18.85;;;;;;;0.10;100.00;95516.50;1028000;28;20018;-72
2021/01/04 00:13:09;;;;;;;42.80;20.30;;;;;;;0.13;100.00;95522.31;1032026;28;20502;-73
2021/01/04 00:13:52;;;;;;;41.97;20.02;;;;;;;0.15;100.00;95516.97;1027681;28;20019;-73
2021/01/04 00:14:39;;;;;;;38.97;18.60;;;;;;;0.05;100.00;95510.81;1035812;28;20103;-73
2021/01/04 00:15:12;;;;;;;43.75;20.45;;;;;;;0.13;100.00;95517.09;1027864;28;20023;-73
2021/01/04 00:15:48;;;;;;;45.03;19.08;;;;;;;0.11;100.00;95503.34;1031697;28;20093;-73
2021/01/04 00:16:31;;;;;;;43.28;19.48;;;;;;;0.12;100.00;95512.84;1031897;28;20018;-73
2021/01/04 00:17:16;;;;;;;39.78;18.65;;;;;;;0.20;100.00;95506.16;1031885;28;20022;-73
2021/01/04 00:17:55;;;;;;;45.38;20.02;;;;;;;0.23;100.00;95509.38;1027842;28;20034;-73
2021/01/04 00:18:35;;;;;;;38.58;19.10;;;;;;;0.13;100.00;95511.06;1035846;28;20021;-73
2021/01/04 00:19:25;;;;;;;41.38;19.00;;;;;;;0.11;100.00;95508.56;1036028;28;20797;-73
2021/01/04 00:20:03;;;;;;;36.78;18.80;;;;;;;0.13;100.00;95513.66;1035709;28;20021;-73
2021/01/04 00:20:36;;;;;;;42.65;20.27;;;;;;;0.04;100.00;95503.97;1035888;28;20014;-73
2021/01/04 00:21:13;;;;;;;39.53;18.77;;;;;;;0.01;100.00;95514.66;1035906;28;20487;-73
2021/01/04 00:21:56;;;;;;;48.85;20.73;;;;;;;-0.03;100.00;95512.28;1039863;28;20031;-73
2021/01/04 00:22:40;;;;;;;41.10;18.77;;;;;;;-0.01;100.00;95505.13;1035862;28;20037;-72
2021/01/04 00:23:21;;;;;;;41.28;19.33;;;;;;;0.11;100.00;95516.41;1035939;28;20025;-73
2021/01/04 00:24:08;;;;;;;48.67;20.70;;;;;;;0.13;100.00;95513.66;1031721;28;20459;-73
2021/01/04 00:24:50;;;;;;;45.90;21.00;;;;;;;-0.02;100.00;95516.56;1031698;28;20022;-73
2021/01/04 00:25:24;;;;;;;45.22;19.92;;;;;;;-0.03;100.00;95521.88;1035850;28;20025;-72
2021/01/04 00:25:58;;;;;;;41.40;20.75;;;;;;;-0.02;100.00;95513.09;1035920;28;20028;-73
2021/01/04 00:26:44;;;;;;;43.10;20.50;;;;;;;-0.03;100.00;95507.03;1031773;28;20479;-73
2021/01/04 00:27:24;;;;;;;46.38;20.63;;;;;;;-0.03;100.00;95512.28;1031924;28;20026;-73
2021/01/04 00:28:07;;;;;;;43.58;20.63;;;;;;;-0.02;100.00;95513.09;1031947;28;20038;-73
2021/01/04 00:28:38;;;;;;;44.53;20.23;;;;;;;0.02;100.00;95518.91;1035998;28;20477;-73
2021/01/04 00:29:18;;;;;;;47.47;20.92;;;;;;;0.02;100.00;95518.91;1031808;28;20026;-73
2021/01/04 00:29:51;;;;;;;46.95;20.58;;;;;;;-0.02;100.00;95518.31;1039907;28;20033;-73
2021/01/04 00:30:25;;;;;;;44.63;21.42;;;;;;;0.05;100.00;95516.03;1039892;28;20208;-73
2021/01/04 00:31:02;;;;;;;46.97;21.60;;;;;;;0.07;100.00;95515.00;1031904;28;20465;-72
2021/01/04 00:31:37;;;;;;;44.65;21.63;;;;;;;0.12;100.00;95518.06;1031781;28;20019;-73
2021/01/04 00:32:21;;;;;;;46.00;20.73;;;;;;;0.13;100.00;95511.06;1037859;28;20025;-73
2021/01/04 00:32:54;;;;;;;44.28;19.98;;;;;;;0.17;100.00;95517.69;1047575;28;20029;-73
2021/01/04 00:33:36;;;;;;;42.67;21.00;;;;;;;0.10;100.00;95500.84;1042857;28;20056;-73
2021/01/04 00:34:11;;;;;;;44.15;20.40;;;;;;;0.17;100.00;95507.22;1035953;28;20033;-73
2021/01/04 00:34:44;;;;;;;41.67;19.95;;;;;;;0.28;100.00;95509.81;1031668;28;20443;-73
2021/01/04 00:35:17;;;;;;;46.88;21.58;;;;;;;0.31;100.00;95511.34;1031632;28;20403;-73
2021/01/04 00:35:52;;;;;;;49.78;21.75;;;;;;;0.29;100.00;95511.47;1035443;28;20029;-73
2021/01/04 00:36:31;;;;;;;46.72;22.73;;;;;;;0.23;100.00;95513.75;1039739;28;20030;-73
2021/01/04 00:37:11;;;;;;;48.20;21.65;;;;;;;0.15;100.00;95515.19;1031759;28;20022;-72
2021/01/04 00:38:03;;;;;;;41.75;21.05;;;;;;;0.19;100.00;95515.75;1031795;28;20057;-73
2021/01/04 00:38:44;;;;;;;42.17;20.17;;;;;;;0.15;100.00;95504.75;1039944;28;20032;-73
2021/01/04 00:39:34;;;;;;;43.30;20.95;;;;;;;0.23;100.00;95513.75;1031766;28;20026;-73
2021/01/04 00:40:24;;;;;;;46.13;20.88;;;;;;;0.21;100.00;95524.34;1031836;28;20022;-73
2021/01/04 00:41:08;;;;;;;41.38;19.70;;;;;;;0.04;100.00;95490.91;1031627;28;20431;-73
2021/01/04 00:41:46;;;;;;;42.90;20.50;;;;;;;0.10;100.00;95517.34;1035897;28;20041;-72
2021/01/04 00:42:30;;;;;;;46.47;20.88;;;;;;;0.02;100.00;95501.47;1027865;28;20038;-73
2021/01/04 00:43:01;;;;;;;41.88;19.70;;;;;;;0.04;100.00;95502.16;1040086;28;20047;-73
2021/01/04 00:43:35;;;;;;;39.75;19.63;;;;;;;0.02;100.00;95504.09;1040090;28;20083;-72
2021/01/04 00:44:09;;;;;;;44.40;20.67;;;;;;;0.01;100.00;95515.47;1039946;28;20017;-73
2021/01/04 00:44:45;;;;;;;44.95;21.08;;;;;;;0.03;100.00;95515.34;1031726;28;20026;-73
2021/01/04 00:45:23;;;;;;;44.25;21.23;;;;;;;0.02;100.00;95514.53;1027672;28;20026;-73
2021/01/04 00:45:54;;;;;;;45.75;20.92;;;;;;;0.03;100.00;95516.16;1035863;28;20021;-73
2021/01/04 00:46:30;;;;;;;40.38;19.70;;;;;;;-0.05;100.00;95518.56;1031780;28;20030;-73
2021/01/04 00:47:06;;;;;;;43.03;21.92;;;;;;;0.06;100.00;95515.09;1031667;28;20415;-73
2021/01/04 00:47:46;;;;;;;42.25;19.85;;;;;;;0.11;100.00;95508.56;1031716;28;20116;-73
2021/01/04 00:48:19;;;;;;;;;;;;;;;0.17;100.00;95513.31;1032132;28;20026;-73
2021/01/04 00:49:19;;;;;;;41.25;18.60;;;;;;;0.12;100.00;95504.16;1039836;28;19952;-73
2021/01/04 00:49:52;;;;;;;43.38;19.35;;;;;;;0.18;100.00;95511.50;1036065;28;20017;-73
2021/01/04 00:50:37;;;;;;;41.30;19.60;;;;;;;0.20;100.00;95512.22;1027749;28;20015;-73
2021/01/04 00:51:18;;;;;;;41.13;19.30;;;;;;;0.26;100.00;95514.34;1027618;28;20022;-73
2021/01/04 00:52:03;;;;;;;40.42;18.98;;;;;;;0.29;100.00;95519.31;1027748;28;20023;-73
2021/01/04 00:52:37;;;;;;;41.83;19.48;;;;;;;0.31;100.00;95514.78;1035687;28;20057;-73
2021/01/04 00:53:13;;;;;;;40.70;20.50;;;;;;;0.30;100.00;95515.75;1039761;28;20021;-73
2021/01/04 00:53:46;;;;;;;41.10;20.38;;;;;;;0.31;100.00;95514.78;1035797;28;20053;-73
2021/01/04 00:54:23;;;;;;;47.30;21.35;;;;;;;0.26;100.00;95516.09;1027762;28;20031;-73
2021/01/04 00:55:03;;;;;;;41.42;18.75;;;;;;;0.23;100.00;95517.19;1035782;28;20153;-73
2021/01/04 00:55:55;;;;;;;43.67;20.00;;;;;;;0.22;100.00;95506.88;1031817;28;20387;-73
2021/01/04 00:56:37;;;;;;;38.58;17.83;;;;;;;0.08;100.00;95510.59;1027707;28;20057;-73
2021/01/04 00:57:32;;;;;;;40.83;18.98;;;;;;;0.13;100.00;95519.69;1039876;28;20037;-73
2021/01/04 00:58:22;;;;;;;40.47;18.40;;;;;;;0.19;100.00;95520.97;1035921;28;20487;-73
2021/01/04 00:58:58;;;;;;;43.83;19.48;;;;;;;0.07;100.00;95516.75;1031731;28;20491;-73
2021/01/04 00:59:32;;;;;;;41.60;19.90;;;;;;;0.10;100.00;95516.50;1031478;28;20018;-73
2021/01/04 01:00:11;;;;;;;41.95;19.45;;;;;;;-0.04;100.00;95507.16;1031724;28;20026;-73
2021/01/04 01:00:49;;;;;;;38.70;19.10;;;;;;;0.01;100.00;95525.91;1031745;28;20029;-73
2021/01/04 01:01:34;;;;;;;37.88;19.55;;;;;;;0.00;100.00;95526.88;1031662;28;20022;-73
2021/01/04 01:02:18;;;;;;;40.65;19.60;;;;;;;-0.01;100.00;95519.97;1035690;28;20030;-73
2021/01/04 01:03:06;;;;;;;41.67;18.50;;;;;;;-0.01;100.00;95520.81;1031657;28;20121;-73
2021/01/04 01:03:58;;;;;;;38.58;18.42;;;;;;;0.01;100.00;95525.91;1031602;28;20022;-73
2021/01/04 01:04:48;;;;;;;37.35;17.77;;;;;;;0.04;100.00;95532.69;1031719;28;20057;-73
2021/01/04 01:05:23;;;;;;;43.78;18.92;;;;;;;-0.01;100.00;95525.19;1027670;28;20026;-73
2021/01/04 01:06:02;;;;;;;42.03;18.70;;;;;;;0.02;100.00;95526.72;1039700;28;20013;-73
2021/01/04 01:06:54;;;;;;;41.92;19.33;;;;;;;-0.04;100.00;95522.81;1039937;28;20085;-73
2021/01/04 01:07:45;;;;;;;39.97;18.35;;;;;;;-0.01;100.00;95523.41;1031703;28;20014;-73
2021/01/04 01:08:25;;;;;;;40.70;18.80;;;;;;;0.07;100.00;95522.81;1035791;28;20014;-73
2021/01/04 01:08:56;;;;;;;37.35;18.10;;;;;;;0.02;100.00;95530.19;1031744;28;20018;-73
2021/01/04 01:09:28;;;;;;;40.90;19.98;;;;;;;0.03;100.00;95528.41;1044003;28;20036;-73
2021/01/04 01:09:59;;;;;;;39.05;19.17;;;;;;;-0.02;100.00;95529.59;1039807;28;20419;-73
2021/01/04 01:10:33;;;;;;;42.38;20.45;;;;;;;-0.04;100.00;95528.88;1039800;28;20157;-73
2021/01/04 01:11:15;;;;;;;40.45;20.10;;;;;;;-0.09;100.00;95528.41;1043925;28;20130;-72
2021/01/04 01:12:07;;;;;;;40.25;20.23;;;;;;;-0.07;100.00;95526.53;1031860;28;20021;-73
2021/01/04 01:12:43;;;;;;;38.10;18.35;;;;;;;-0.02;100.00;95528.75;1031672;28;20455;-73
2021/01/04 01:13:15;;;;;;;40.90;18.77;;;;;;;0.00;100.00;95519.03;1027734;28;20025;-73
2021/01/04 01:13:54;;;;;;;34.92;17.90;;;;;;;-0.01;100.00;95530.41;1027576;28;20022;-72
2021/01/04 01:14:26;;;;;;;37.70;19.48;;;;;;;0.08;100.00;95529.69;1035650;28;20066;-72
2021/01/04 01:14:57;;;;;;;40.13;18.60;;;;;;;0.05;100.00;95514.25;1035649;28;20035;-73
2021/01/04 01:15:31;;;;;;;37.45;17.73;;;;;;;0.05;100.00;95527.31;1027615;28;20022;-73
2021/01/04 01:16:14;;;;;;;39.05;19.00;;;;;;;0.01;100.00;95528.50;1035589;28;20026;-73
2021/01/04 01:16:59;;;;;;;35.78;16.85;;;;;;;-0.05;100.00;95521.19;1031673;28;20022;-73
2021/01/04 01:17:38;;;;;;;38.78;18.45;;;;;;;0.01;100.00;95530.31;1035786;28;20117;-73
2021/01/04 01:18:24;;;;;;;38.42;18.70;;;;;;;0.00;100.00;95532.09;1027625;28;20023;-72
2021/01/04 01:19:08;;;;;;;41.75;19.40;;;;;;;-0.12;100.00;95523.44;1039879;28;20037;-72
2021/01/04 01:19:56;;;;;;;38.25;17.75;;;;;;;-0.02;100.00;95539.19;1035689;28;20133;-73
2021/01/04 01:20:27;;;;;;;36.22;17.65;;;;;;;0.00;100.00;95526.88;1035682;28;20112;-73
2021/01/04 01:21:00;;;;;;;38.95;17.90;;;;;;;0.02;100.00;95531.94;1035774;28;20117;-73
2021/01/04 01:21:31;;;;;;;40.80;18.85;;;;;;;0.05;100.00;95535.13;1031683;28;20018;-73
2021/01/04 01:22:02;;;;;;;36.35;18.02;;;;;;;0.11;100.00;95539.88;1027642;28;20027;-73
2021/01/04 01:22:34;;;;;;;36.72;18.48;;;;;;;0.11;100.00;95539.88;1039684;28;20021;-73
2021/01/04 01:23:09;;;;;;;33.47;17.23;;;;;;;0.02;100.00;95524.97;1027650;28;20062;-73
2021/01/04 01:23:40;;;;;;;36.63;17.98;;;;;;;-0.01;100.00;95536.47;1031691;28;20517;-73
2021/01/04 01:24:11;;;;;;;37.30;18.27;;;;;;;-0.02;100.00;95533.97;1031563;28;20015;-72
2021/01/04 01:24:42;;;;;;;36.55;17.60;;;;;;;-0.07;100.00;95523.06;1043856;28;20178;-73
2021/01/04 01:25:17;;;;;;;34.13;16.98;;;;;;;0.06;100.00;95541.22;1027565;28;20015;-73
2021/01/04 01:25:56;;;;;;;36.40;18.27;;;;;;;0.02;100.00;95532.78;1031754;28;20018;-73
2021/01/04 01:26:47;;;;;;;37.38;17.63;;;;;;;0.15;100.00;95533.47;1035625;28;20527;-73
2021/01/04 01:27:32;;;;;;;39.15;18.73;;;;;;;0.15;100.00;95536.06;1031675;28;20054;-73
2021/01/04 01:28:14;;;;;;;35.33;17.77;;;;;;;0.12;100.00;95533.72;1028548;28;20019;-73
2021/01/04 01:28:53;;;;;;;39.75;18.77;;;;;;;0.12;100.00;95535.50;1032647;28;20022;-72
2021/01/04 01:29:33;;;;;;;34.10;17.10;;;;;;;0.08;100.00;95534.91;1035688;28;20030;-73
2021/01/04 01:30:23;;;;;;;35.17;16.88;;;;;;;0.09;100.00;95536.56;1027648;28;20038;-73
2021/01/04 01:31:03;;;;;;;;;;;;;;;0.04;100.00;95543.94;1040168;28;20041;-73
2021/01/04 01:31:54;;;;;;;34.13;16.35;;;;;;;0.03;100.00;95536.22;1039738;28;20316;-73
2021/01/04 01:32:32;;;;;;;34.35;16.75;;;;;;;0.03;100.00;95546.66;1035669;28;20022;-72
2021/01/04 01:33:24;;;;;;;33.63;16.52;;;;;;;-0.03;100.00;95527.94;1039677;28;20035;-73
2021/01/04 01:34:06;;;;;;;34.58;16.63;;;;;;;0.07;100.00;95545.47;1039860;28;20075;-73
2021/01/04 01:34:54;;;;;;;37.40;17.67;;;;;;;0.05;100.00;95540.34;1032055;28;20054;-72
2021/01/04 01:35:35;;;;;;;35.05;16.65;;;;;;;-0.02;100.00;95537.44;1035525;28;20029;-73
2021/01/04 01:36:17;;;;;;;36.38;17.67;;;;;;;0.06;100.00;95549.03;1039788;28;20036;-73
2021/01/04 01:37:03;;;;;;;38.40;17.95;;;;;;;-0.03;100.00;95548.81;1039629;28;20059;-73
2021/01/04 01:37:53;;;;;;;39.45;18.02;;;;;;;-0.02;100.00;95547.88;1031618;28;20014;-72
2021/01/04 01:38:39;;;;;;;38.72;18.73;;;;;;;0.05;100.00;95545.56;1031679;28;20026;-73
2021/01/04 01:39:20;;;;;;;40.30;17.83;;;;;;;0.03;100.00;95546.66;1032186;28;20050;-73
2021/01/04 01:40:01;;;;;;;39.47;18.60;;;;;;;0.02;100.00;95543.25;1035797;28;20030;-73
2021/01/04 01:40:51;;;;;;;32.92;16.73;;;;;;;0.01;100.00;95556.41;1035845;28;20382;-73
2021/01/04 01:41:35;;;;;;;35.65;17.25;;;;;;;-0.02;100.00;95539.19;1035666;28;20018;-73
2021/01/04 01:42:13;;;;;;;37.28;17.35;;;;;;;-0.07;100.00;95542.19;1027663;28;20027;-72
2021/01/04 01:42:54;;;;;;;36.85;16.80;;;;;;;0.01;100.00;95548.56;1035699;28;20418;-73
2021/01/04 01:43:28;;;;;;;38.95;19.27;;;;;;;0.07;100.00;95553.28;1035630;28;20109;-73
2021/01/04 01:44:11;;;;;;;40.53;18.38;;;;;;;-0.07;100.00;95546.56;1031658;28;20022;-72
2021/01/04 01:45:01;;;;;;;41.03;18.48;;;;;;;0.00;100.00;95552.97;1035637;28;20030;-73
2021/01/04 01:45:42;;;;;;;37.20;17.63;;;;;;;-0.03;100.00;95543.59;1035544;28;20014;-73
2021/01/04 01:46:25;;;;;;;39.75;18.25;;;;;;;0.05;100.00;95556.03;1027578;28;20025;-73
2021/01/04 01:47:07;;;;;;;37.80;17.20;;;;;;;-0.05;100.00;95539.44;1031914;28;20513;-73
2021/01/04 01:47:52;;;;;;;34.60;17.73;;;;;;;-0.09;100.00;95554.50;1040555;28;20465;-72
2021/01/04 01:48:35;;;;;;;36.35;17.85;;;;;;;-0.01;100.00;95552.13;1028329;28;20019;-73
2021/01/04 01:49:07;;;;;;;37.40;17.48;;;;;;;0.01;100.00;95548.56;1044518;28;20032;-73
2021/01/04 01:49:52;;;;;;;36.78;17.23;;;;;;;-0.03;100.00;95548.00;1044564;28;20497;-73
2021/01/04 01:50:32;;;;;;;34.08;17.10;;;;;;;-0.01;100.00;95546.09;1036410;28;20017;-73
2021/01/04 01:51:06;;;;;;;34.13;16.50;;;;;;;-0.03;100.00;95550.59;1032292;28;20148;-73
2021/01/04 01:51:50;;;;;;;35.22;16.92;;;;;;;-0.11;100.00;95537.31;1032348;28;20483;-72
2021/01/04 01:52:40;;;;;;;31.30;16.30;;;;;;;0.03;100.00;95550.09;1028347;28;20078;-73
2021/01/04 01:53:22;;;;;;;30.30;14.77;;;;;;;-0.09;100.00;95553.69;1040495;28;20501;-73
2021/01/04 01:54:12;;;;;;;28.15;14.50;;;;;;;-0.14;100.00;95547.97;1036315;28;20120;-72
2021/01/04 01:54:52;;;;;;;27.88;13.40;;;;;;;-0.09;100.00;95553.69;1032319;28;20383;-72
2021/01/04 01:55:29;;;;;;;25.70;13.80;;;;;;;-0.06;100.00;95553.44;1036369;28;20021;-73
2021/01/04 01:56:17;;;;;;;28.48;14.68;;;;;;;-0.06;100.00;95549.03;1044482;28;20083;-73
2021/01/04 01:57:01;;;;;;;25.38;13.43;;;;;;;0.03;100.00;95557.09;1044603;28;20013;-73
2021/01/04 01:57:46;;;;;;;24.85;12.98;;;;;;;0.07;100.00;95556.75;1032345;28;20264;-72
2021/01/04 01:58:34;;;;;;;27.92;13.45;;;;;;;0.00;100.00;95555.59;1032218;28;20022;-73
2021/01/04 01:59:19;;;;;;;27.42;14.25;;;;;;;0.02;100.00;95548.47;1040521;28;20129;-73
2021/01/04 01:59:58;;;;;;;28.58;13.68;;;;;;;0.02;100.00;95553.69;1040285;28;20144;-73
2021/01/04 02:00:42;;;;;;;30.67;14.57;;;;;;;0.02;100.00;95552.81;1040474;28;20478;-73
2021/01/04 02:01:19;;;;;;;30.60;14.55;;;;;;;0.03;100.00;95551.88;1040418;28;20382;-72
2021/01/04 02:02:00;;;;;;;33.95;15.55;;;;;;;0.04;100.00;95549.16;1032183;28;20063;-73
2021/01/04 02:02:35;;;;;;;28.27;14.57;;;;;;;-0.07;100.00;95541.31;1040484;28;20038;-73
2021/01/04 02:03:13;;;;;;;29.30;15.07;;;;;;;-0.03;100.00;95550.59;1040533;28;20042;-73
2021/01/04 02:03:59;;;;;;;34.33;16.73;;;;;;;-0.10;100.00;95547.63;1036249;28;20049;-73
2021/01/04 02:04:40;;;;;;;30.35;15.55;;;;;;;-0.09;100.00;95536.22;1032807;28;20092;-73
2021/01/04 02:05:16;;;;;;;32.65;15.75;;;;;;;-0.04;100.00;95547.13;1029488;28;20442;-73
2021/01/04 02:05:57;;;;;;;30.30;14.70;;;;;;;0.01;100.00;95552.00;1033468;28;20014;-73
2021/01/04 02:06:47;;;;;;;29.77;15.60;;;;;;;-0.08;100.00;95534.47;1033596;28;20108;-73
2021/01/04 02:07:37;;;;;;;31.85;15.43;;;;;;;-0.09;100.00;95544.06;1033448;28;20033;-73
2021/01/04 02:08:11;;;;;;;37.83;16.67;;;;;;;-0.14;100.00;95545.38;1029106;28;20027;-73
2021/01/04 02:08:46;;;;;;;35.08;15.93;;;;;;;-0.30;100.00;95520.47;1033438;28;20031;-73
2021/01/04 02:09:20;;;;;;;31.80;15.70;;;;;;;-0.07;100.00;95546.56;1041772;28;20021;-73
2021/01/04 02:09:56;;;;;;;31.85;16.35;;;;;;;-0.15;100.00;95531.50;1037632;28;20479;-73
2021/01/04 02:10:31;;;;;;;32.38;15.60;;;;;;;-0.08;100.00;95543.13;1029696;28;20031;-73
2021/01/04 02:11:04;;;;;;;33.38;16.75;;;;;;;-0.09;100.00;95545.84;1037588;28;20025;-73
2021/01/04 02:11:54;;;;;;;30.50;15.40;;;;;;;-0.08;100.00;95543.13;1034051;28;20025;-73
2021/01/04 02:12:53;;;;;;;34.50;16.05;;;;;;;-0.17;100.00;95532.56;1033567;28;20045;-73
2021/01/04 02:13:28;;;;;;;33.10;15.57;;;;;;;-0.08;100.00;95547.53;1041850;28;20098;-73
2021/01/04 02:14:16;;;;;;;31.52;16.13;;;;;;;-0.14;100.00;95545.38;1029694;28;20031;-73
2021/01/04 02:15:06;;;;;;;32.65;14.68;;;;;;;-0.16;100.00;95535.06;1033341;28;20522;-73
2021/01/04 02:15:52;;;;;;;33.80;16.58;;;;;;;-0.06;100.00;95543.81;1034473;28;20414;-73
2021/01/04 02:16:30;;;;;;;33.22;15.88;;;;;;;-0.06;100.00;95548.22;1033497;28;20030;-73
2021/01/04 02:17:17;;;;;;;31.08;15.30;;;;;;;-0.12;100.00;95546.06;1037113;28;20478;-73
2021/01/04 02:17:52;;;;;;;31.40;14.80;;;;;;;-0.07;100.00;95549.16;1028290;28;20026;-73
2021/01/04 02:18:42;;;;;;;31.00;15.10;;;;;;;-0.08;100.00;95548.34;1040322;28;20033;-73
2021/01/04 02:19:26;;;;;;;33.15;15.48;;;;;;;-0.18;100.00;95538.75;1040446;28;20021;-73
2021/01/04 02:20:17;;;;;;;30.02;15.18;;;;;;;-0.23;100.00;95537.34;1032285;28;20061;-73
2021/01/04 02:21:08;;;;;;;26.67;13.13;;;;;;;-0.25;100.00;95541.00;1040298;28;20025;-73
2021/01/04 02:21:39;;;;;;;22.10;11.43;;;;;;;-0.18;100.00;95543.97;1032265;28;20057;-72
2021/01/04 02:22:21;;;;;;;19.48;10.93;;;;;;;-0.19;100.00;95545.75;1036417;28;20517;-73
2021/01/04 02:23:00;;;;;;;15.75;9.25;;;;;;;-0.16;99.63;95548.09;1036257;28;20578;-73
2021/01/04 02:23:42;;;;;;;15.77;8.20;;;;;;;-0.16;99.62;95542.88;1032228;28;20018;-73
2021/01/04 02:24:14;;;;;;;14.55;8.07;;;;;;;-0.17;98.65;95545.59;1048663;28;20105;-73
2021/01/04 02:24:45;;;;;;;15.30;8.90;;;;;;;-0.18;98.99;95541.34;1040184;28;20025;-73
2021/01/04 02:25:16;;;;;;;16.63;8.88;;;;;;;-0.13;98.75;95547.03;1036169;28;20506;-73
2021/01/04 02:25:48;;;;;;;16.00;9.02;;;;;;;-0.15;98.63;95539.34;1036350;28;20033;-73
2021/01/04 02:26:23;;;;;;;14.82;8.43;;;;;;;-0.13;97.29;95542.66;1032252;28;20021;-73
2021/01/04 02:27:13;;;;;;;14.70;7.63;;;;;;;-0.10;96.67;95541.59;1040418;28;20505;-73
2021/01/04 02:27:47;;;;;;;15.43;8.43;;;;;;;-0.15;96.99;95538.50;1036406;28;20359;-73
2021/01/04 02:28:21;;;;;;;14.18;8.07;;;;;;;-0.19;97.55;95532.72;1032505;28;20022;-72
2021/01/04 02:28:56;;;;;;;15.85;8.82;;;;;;;-0.25;97.73;95510.50;1040386;28;20381;-73
2021/01/04 02:29:27;;;;;;;17.25;8.43;;;;;;;-0.02;97.31;95544.41;1040323;28;20109;-73
2021/01/04 02:29:58;;;;;;;17.27;8.68;;;;;;;0.00;97.52;95534.69;1040370;28;20212;-73
2021/01/04 02:30:29;;;;;;;13.68;7.68;;;;;;;-0.06;97.34;95522.94;1044670;28;20078;-73
2021/01/04 02:30:59;;;;;;;13.82;7.75;;;;;;;0.06;97.29;95539.41;1036251;28;20045;-73
2021/01/04 02:31:30;;;;;;;15.30;8.88;;;;;;;0.03;97.41;95539.66;1032200;28;20018;-73
2021/01/04 02:32:04;;;;;;;14.32;8.45;;;;;;;0.04;96.90;95540.50;1032271;28;20018;-73
2021/01/04 02:32:35;;;;;;;16.98;9.32;;;;;;;-0.07;97.31;95512.63;1032221;28;20502;-72
2021/01/04 02:33:06;;;;;;;17.70;9.60;;;;;;;0.02;97.37;95527.56;1032179;28;20109;-73
2021/01/04 02:33:37;;;;;;;19.55;10.48;;;;;;;0.11;97.30;95533.84;1036257;28;20076;-72
2021/01/04 02:34:09;;;;;;;19.08;10.40;;;;;;;0.09;97.98;95536.56;1032163;28;20538;-73
2021/01/04 02:34:43;;;;;;;20.10;11.40;;;;;;;0.12;97.42;95541.56;1032335;28;20026;-73
2021/01/04 02:35:14;;;;;;;19.85;11.73;;;;;;;0.02;98.17;95519.75;1028170;28;20019;-73
2021/01/04 02:35:54;;;;;;;21.23;12.55;;;;;;;0.06;99.04;95536.81;1036244;28;20114;-72
2021/01/04 02:36:25;;;;;;;21.35;10.98;;;;;;;0.06;98.62;95536.00;1036374;28;20018;-72
2021/01/04 02:36:56;;;;;;;19.92;11.45;;;;;;;0.06;99.07;95536.81;1040395;28;20025;-73
2021/01/04 02:37:27;;;;;;;20.48;11.75;;;;;;;0.02;98.97;95539.78;1040229;28;20017;-73
2021/01/04 02:37:59;;;;;;;21.88;11.52;;;;;;;-0.02;99.32;95533.97;1032261;28;20364;-73
2021/01/04 02:38:32;;;;;;;23.50;13.48;;;;;;;0.07;99.27;95537.63;1036216;28;20014;-72
2021/01/04 02:39:07;;;;;;;23.60;12.70;;;;;;;0.13;99.25;95535.38;1036310;28;20089;-72
2021/01/04 02:39:57;;;;;;;22.67;12.77;;;;;;;0.10;99.00;95532.16;1028169;28;20053;-73
2021/01/04 02:40:28;;;;;;;27.30;13.50;;;;;;;0.13;99.35;95540.59;1036254;28;20049;-73
2021/01/04 02:40:58;;;;;;;22.65;12.50;;;;;;;0.10;99.40;95540.81;1036218;28;20030;-73
2021/01/04 02:41:41;;;;;;;26.08;13.25;;;;;;;0.13;99.45;95537.16;1032099;28;20018;-73
2021/01/04 02:42:14;;;;;;;23.95;12.00;;;;;;;0.14;99.85;95544.03;1040290;28;20022;-73
2021/01/04 02:42:47;;;;;;;27.40;14.35;;;;;;;0.05;100.00;95537.75;1032164;28;20367;-73
2021/01/04 02:43:20;;;;;;;29.20;14.13;;;;;;;0.01;100.00;95536.34;1032180;28;20450;-73
2021/01/04 02:43:51;;;;;;;24.67;14.13;;;;;;;0.02;100.00;95547.59;1036235;28;20625;-73
2021/01/04 02:44:23;;;;;;;25.75;13.63;;;;;;;-0.01;100.00;95546.91;1032240;28;20194;-73
2021/01/04 02:44:54;;;;;;;26.55;14.15;;;;;;;0.01;100.00;95544.19;1032107;28;20114;-73
2021/01/04 02:45:28;;;;;;;26.70;13.30;;;;;;;0.04;100.00;95543.94;1036116;28;20344;-73
2021/01/04 02:46:01;;;;;;;26.33;13.63;;;;;;;0.00;100.00;95539.91;1032053;28;20022;-73
2021/01/04 02:46:32;;;;;;;25.90;13.77;;;;;;;-0.05;100.00;95545.50;1032160;28;20025;-73
2021/01/04 02:47:23;;;;;;;24.70;13.18;;;;;;;-0.03;100.00;95542.78;1032187;28;20018;-73
2021/01/04 02:48:03;;;;;;;26.00;13.68;;;;;;;-0.03;100.00;95548.00;1036005;28;20083;-72
2021/01/04 02:48:46;;;;;;;26.45;13.15;;;;;;;-0.09;100.00;95527.56;1036172;28;20024;-73
2021/01/04 02:49:23;;;;;;;24.90;12.32;;;;;;;-0.26;100.00;95508.88;1028250;28;20106;-73
2021/01/04 02:50:13;;;;;;;24.70;12.63;;;;;;;-0.04;99.87;95551.53;1032050;28;20444;-73
2021/01/04 02:50:56;;;;;;;23.00;11.65;;;;;;;-0.06;100.00;95529.94;1032146;28;20014;-73
2021/01/04 02:51:29;;;;;;;24.02;12.55;;;;;;;-0.05;100.00;95539.44;1032291;28;20451;-73
2021/01/04 02:52:05;;;;;;;22.90;12.45;;;;;;;0.01;99.63;95538.94;1036123;28;20022;-73
2021/01/04 02:52:43;;;;;;;23.88;12.63;;;;;;;0.03;99.51;95544.88;1032203;28;20422;-73
2021/01/04 02:53:40;;;;;;;24.55;13.35;;;;;;;0.06;99.48;95547.25;1036205;28;20474;-73
2021/01/04 02:54:22;;;;;;;22.08;11.68;;;;;;;-0.02;99.18;95545.25;1044157;28;20417;-73
2021/01/04 02:54:58;;;;;;;25.25;12.70;;;;;;;0.00;99.27;95545.16;1036189;28;20030;-73
2021/01/04 02:55:42;;;;;;;25.15;13.20;;;;;;;0.03;99.11;95547.47;1036151;28;20029;-73
2021/01/04 02:56:32;;;;;;;24.08;12.60;;;;;;;0.10;98.89;95547.84;1040172;28;20060;-73
2021/01/04 02:57:11;;;;;;;22.63;12.57;;;;;;;0.18;99.10;95546.28;1028145;28;20488;-72
2021/01/04 02:57:48;;;;;;;26.88;13.70;;;;;;;0.17;99.37;95543.78;1044474;28;20021;-73
2021/01/04 02:58:31;;;;;;;27.23;13.50;;;;;;;0.08;99.52;95540.13;1044169;28;20052;-73
2021/01/04 02:59:22;;;;;;;25.65;13.13;;;;;;;0.11;99.47;95539.06;1035899;28;20084;-73
2021/01/04 02:59:56;;;;;;;25.38;12.68;;;;;;;0.12;99.45;95546.78;1032087;28;20026;-73
2021/01/04 03:00:26;;;;;;;27.73;13.43;;;;;;;0.03;100.00;95544.06;1032135;28;20057;-72
2021/01/04 03:01:11;;;;;;;26.08;13.55;;;;;;;-0.09;100.00;95523.19;1036198;28;20044;-73
2021/01/04 03:01:54;;;;;;;27.13;12.93;;;;;;;0.06;100.00;95547.25;1032049;28;20022;-73
2021/01/04 03:02:36;;;;;;;28.25;13.80;;;;;;;0.05;100.00;95553.41;1040170;28;20042;-73
2021/01/04 03:03:07;;;;;;;27.77;14.35;;;;;;;-0.20;100.00;95505.75;1031791;28;20049;-73
2021/01/04 03:03:38;;;;;;;29.17;15.05;;;;;;;0.03;100.00;95549.28;1036317;28;20021;-73